Time;durP1;ratioP1;P1;durP2;ratioP2;P2;SDS_P1;SDS_P2;PMS_P1;PMS_P2;Temp;Humidity;BMP_temperature;BMP_pressure;BME280_temperature;BME280_humidity;BME280_pressure;Samples;Min_cycle;Max_cycle;Signal;HPM_P1;HPM_P2
2022/04/04 04:06:38;;;;;;;16.50;13.87;;;-4.30;99.90;;;;;;4896372;29;21030;-75
2022/04/04 04:09:06;;;;;;;18.53;14.60;;;-4.30;99.90;;;;;;4912179;29;20467;-76
2022/04/04 04:11:35;;;;;;;18.57;14.00;;;-4.30;99.90;;;;;;4920869;29;20982;-79
2022/04/04 04:14:03;;;;;;;17.40;13.97;;;-4.30;99.90;;;;;;4921763;29;20498;-77
2022/04/04 04:16:31;;;;;;;17.27;14.07;;;-4.30;99.90;;;;;;4921465;29;20868;-78
2022/04/04 04:19:00;;;;;;;18.17;14.23;;;-4.20;99.90;;;;;;4883097;29;20461;-76
2022/04/04 04:21:29;;;;;;;16.93;14.00;;;-4.20;99.90;;;;;;4883128;29;20469;-77
2022/04/04 04:23:59;;;;;;;19.07;13.80;;;-4.30;99.90;;;;;;4883226;29;20492;-77
2022/04/04 04:26:34;;;;;;;18.23;13.70;;;-4.30;99.90;;;;;;4884443;29;20472;-76
2022/04/04 04:29:04;;;;;;;17.73;14.83;;;-4.20;99.90;;;;;;4882605;29;20486;-79
2022/04/04 04:31:35;;;;;;;17.37;14.17;;;-4.30;99.90;;;;;;4882164;29;20456;-78
2022/04/04 04:34:04;;;;;;;17.40;14.33;;;-4.40;99.90;;;;;;4882182;29;20468;-77
2022/04/04 04:36:32;;;;;;;18.43;13.73;;;-4.40;99.90;;;;;;4882184;29;20538;-75
2022/04/04 04:39:02;;;;;;;17.00;14.17;;;-4.40;99.90;;;;;;4887356;29;20485;-77
2022/04/04 04:41:30;;;;;;;19.67;14.73;;;-4.40;99.90;;;;;;4918503;29;20479;-78
2022/04/04 04:44:12;;;;;;;17.83;13.93;;;-4.40;99.90;;;;;;4920588;29;20937;-76
2022/04/04 04:46:41;;;;;;;17.57;14.87;;;-4.40;99.90;;;;;;4916709;29;20936;-76
2022/04/04 04:49:10;;;;;;;17.50;14.80;;;-4.40;99.90;;;;;;4909045;29;20470;-76
2022/04/04 04:51:38;;;;;;;18.93;14.27;;;-4.40;99.90;;;;;;4901292;29;20467;-76
2022/04/04 04:54:08;;;;;;;16.30;13.83;;;-4.40;99.90;;;;;;4909745;29;20460;-77
2022/04/04 04:56:37;;;;;;;16.10;13.40;;;-4.40;99.90;;;;;;4901797;29;20543;-76
2022/04/04 04:59:05;;;;;;;18.33;14.93;;;-4.30;99.90;;;;;;4907006;29;20450;-77
2022/04/04 05:01:33;;;;;;;20.17;16.20;;;-4.30;99.90;;;;;;4901352;29;20447;-76
2022/04/04 05:04:02;;;;;;;20.03;15.70;;;-4.30;99.90;;;;;;4901409;29;20486;-78
2022/04/04 05:06:34;;;;;;;20.60;15.87;;;-4.30;99.90;;;;;;4908356;29;20483;-76
2022/04/04 05:09:02;;;;;;;25.10;17.70;;;-4.00;99.90;;;;;;4919137;29;20502;-75
2022/04/04 05:11:32;;;;;;;23.37;17.50;;;-4.20;99.90;;;;;;4919265;29;20470;-75
2022/04/04 05:14:01;;;;;;;23.67;17.57;;;-4.10;99.90;;;;;;4919360;29;20450;-76
2022/04/04 05:16:32;;;;;;;20.57;16.53;;;-4.10;99.90;;;;;;4919849;29;20444;-76
2022/04/04 05:19:04;;;;;;;22.00;17.10;;;-4.00;99.90;;;;;;4919068;29;20871;-78
2022/04/04 05:21:32;;;;;;;17.87;14.93;;;-4.00;99.90;;;;;;4920250;29;21040;-77
2022/04/04 05:24:00;;;;;;;18.47;14.63;;;-3.90;99.90;;;;;;4918582;29;21169;-77
2022/04/04 05:26:29;;;;;;;18.63;14.97;;;-3.60;99.90;;;;;;4915765;29;20538;-76
2022/04/04 05:28:59;;;;;;;17.50;13.83;;;-3.80;99.90;;;;;;4897360;29;20452;-76
2022/04/04 05:31:31;;;;;;;17.57;13.60;;;-3.70;99.90;;;;;;4911134;29;20455;-76
2022/04/04 05:34:01;;;;;;;16.60;13.47;;;-3.70;99.90;;;;;;4915553;29;20510;-77
2022/04/04 05:36:29;;;;;;;16.00;13.30;;;-3.70;99.90;;;;;;4903045;29;20461;-77
2022/04/04 05:38:58;;;;;;;13.43;11.27;;;-3.60;99.90;;;;;;4915768;29;20520;-78
2022/04/04 05:41:27;;;;;;;14.87;12.50;;;-3.60;99.90;;;;;;4921679;29;20606;-77
2022/04/04 05:43:59;;;;;;;15.97;12.73;;;-3.50;99.90;;;;;;4920458;29;20478;-75
2022/04/04 05:46:27;;;;;;;13.40;11.93;;;-3.50;99.90;;;;;;4918826;29;20516;-77
2022/04/04 05:48:55;;;;;;;14.63;12.13;;;-3.40;99.90;;;;;;4918773;29;20489;-77
2022/04/04 05:51:23;;;;;;;12.87;10.97;;;-3.40;99.90;;;;;;4918406;29;20449;-76
2022/04/04 05:53:52;;;;;;;14.23;11.00;;;-3.30;99.90;;;;;;4919222;29;20475;-78
2022/04/04 05:56:21;;;;;;;12.93;10.60;;;-3.30;99.90;;;;;;4919056;29;20525;-77
2022/04/04 05:58:49;;;;;;;14.53;11.27;;;-3.10;99.90;;;;;;4906552;29;20460;-76
2022/04/04 06:01:19;;;;;;;11.90;10.33;;;-3.00;99.90;;;;;;4900683;29;21007;-78
2022/04/04 06:03:49;;;;;;;15.87;11.77;;;-2.90;99.90;;;;;;4902415;29;20905;-77
2022/04/04 06:06:18;;;;;;;17.73;11.43;;;-2.80;99.90;;;;;;4902179;29;20497;-76
2022/04/04 06:08:46;;;;;;;13.87;10.80;;;-2.60;99.90;;;;;;4900419;29;20507;-78
2022/04/04 06:11:15;;;;;;;11.30;9.10;;;-2.30;99.90;;;;;;4902817;29;20446;-78
2022/04/04 06:13:45;;;;;;;10.10;8.23;;;-2.10;99.90;;;;;;4896681;29;20482;-77
2022/04/04 06:16:14;;;;;;;12.77;7.53;;;-1.30;99.90;;;;;;4901963;29;20508;-75
2022/04/04 06:18:44;;;;;;;9.13;7.07;;;-0.60;99.90;;;;;;4895117;29;20470;-77
2022/04/04 06:21:12;;;;;;;9.03;6.67;;;0.40;99.90;;;;;;4879440;29;20495;-76
2022/04/04 06:23:40;;;;;;;7.10;5.83;;;1.10;99.90;;;;;;4879514;29;20262;-75
2022/04/04 06:26:08;;;;;;;7.63;5.93;;;1.80;99.90;;;;;;4883163;29;20226;-76
2022/04/04 06:28:36;;;;;;;9.10;5.93;;;2.60;99.90;;;;;;4889702;29;20260;-77
2022/04/04 06:31:04;;;;;;;7.70;5.40;;;3.00;99.90;;;;;;4881201;29;20680;-75
2022/04/04 06:33:34;;;;;;;6.80;5.10;;;3.40;99.90;;;;;;4878893;29;20301;-75
2022/04/04 06:36:04;;;;;;;7.43;5.50;;;3.80;99.90;;;;;;4889107;29;20206;-76
2022/04/04 06:38:33;;;;;;;6.43;4.90;;;4.40;99.90;;;;;;4897499;29;20212;-77
2022/04/04 06:41:01;;;;;;;7.67;4.70;;;5.10;99.90;;;;;;4896894;29;20622;-76
2022/04/04 06:43:29;;;;;;;6.73;4.60;;;5.50;99.90;;;;;;4897575;29;20237;-75
2022/04/04 06:45:59;;;;;;;6.00;4.70;;;5.90;99.90;;;;;;4897015;29;20280;-75
2022/04/04 06:48:28;;;;;;;5.67;4.20;;;6.80;95.50;;;;;;4895913;29;20224;-76
2022/04/04 06:50:59;;;;;;;5.30;4.30;;;6.80;97.40;;;;;;4898359;29;20242;-74
2022/04/04 06:53:28;;;;;;;6.73;4.40;;;7.40;94.30;;;;;;4897780;29;20202;-74
2022/04/04 06:55:57;;;;;;;7.77;4.63;;;7.60;93.20;;;;;;4896631;29;20208;-75
2022/04/04 06:58:26;;;;;;;4.73;4.00;;;8.30;91.90;;;;;;4897198;29;20217;-73
2022/04/04 07:00:54;;;;;;;6.73;4.30;;;9.10;90.30;;;;;;4887833;29;20240;-73
2022/04/04 07:03:23;;;;;;;6.03;4.20;;;8.90;89.20;;;;;;4898005;29;20281;-75
2022/04/04 07:05:52;;;;;;;5.07;4.17;;;9.00;87.80;;;;;;4896892;29;20237;-78
2022/04/04 07:08:20;;;;;;;6.50;3.83;;;9.30;87.60;;;;;;4894822;29;20209;-78
2022/04/04 07:10:52;;;;;;;4.90;3.57;;;9.20;86.10;;;;;;4898082;29;20248;-76
2022/04/04 07:13:20;;;;;;;6.73;4.00;;;8.60;82.50;;;;;;4900740;29;20205;-75
2022/04/04 07:15:49;;;;;;;6.37;3.67;;;8.40;84.70;;;;;;4899822;29;20198;-78
2022/04/04 07:18:18;;;;;;;4.17;3.40;;;9.00;82.30;;;;;;4898027;29;20213;-75
2022/04/04 07:20:46;;;;;;;4.28;3.70;;;9.60;80.90;;;;;;4897598;29;20456;-78
2022/04/04 07:23:17;;;;;;;4.13;3.53;;;9.50;79.80;;;;;;4899561;29;20696;-78
2022/04/04 07:25:46;;;;;;;6.97;3.17;;;10.20;78.20;;;;;;4897696;29;20695;-74
2022/04/04 07:28:17;;;;;;;6.17;3.37;;;10.10;73.80;;;;;;4899365;29;20221;-76
2022/04/04 07:30:45;;;;;;;5.50;4.00;;;11.10;71.00;;;;;;4897308;29;20860;-77
2022/04/04 07:33:15;;;;;;;3.33;2.77;;;11.70;67.50;;;;;;4897473;29;20702;-75
2022/04/04 07:35:46;;;;;;;3.87;3.10;;;12.00;62.70;;;;;;4904560;29;20205;-74
2022/04/04 07:38:14;;;;;;;3.93;2.90;;;12.90;61.90;;;;;;4903710;29;20234;-75
2022/04/04 07:40:43;;;;;;;4.80;3.13;;;13.20;57.70;;;;;;4909225;29;20211;-75
2022/04/04 07:43:11;;;;;;;4.67;3.00;;;12.80;56.30;;;;;;4907252;29;20210;-74
2022/04/04 07:45:41;;;;;;;3.67;2.67;;;13.00;56.90;;;;;;4901868;29;20226;-74
2022/04/04 07:48:12;;;;;;;3.17;2.60;;;13.60;57.20;;;;;;4899021;29;20305;-74
2022/04/04 07:50:43;;;;;;;3.40;2.87;;;13.80;54.90;;;;;;4899089;29;20214;-75
2022/04/04 07:53:12;;;;;;;3.70;2.43;;;13.70;56.40;;;;;;4888875;29;20297;-74
2022/04/04 07:55:43;;;;;;;4.87;2.70;;;13.70;59.50;;;;;;4899098;29;20210;-75
2022/04/04 07:58:11;;;;;;;4.60;2.90;;;14.60;55.10;;;;;;4893844;29;20305;-75
2022/04/04 08:00:41;;;;;;;4.13;2.40;;;14.70;52.20;;;;;;4880157;29;20316;-75
2022/04/04 08:03:09;;;;;;;2.70;2.40;;;14.10;52.30;;;;;;4898849;29;20220;-77
2022/04/04 08:05:37;;;;;;;5.43;4.30;;;14.00;51.70;;;;;;4898438;29;20234;-76
2022/04/04 08:08:10;;;;;;;5.53;3.03;;;14.20;51.40;;;;;;4896837;29;20224;-74
2022/04/04 08:10:39;;;;;;;4.30;2.70;;;14.00;51.60;;;;;;4895000;29;20300;-75
2022/04/04 08:13:07;;;;;;;3.23;2.57;;;14.70;50.70;;;;;;4898912;29;20210;-77
2022/04/04 08:15:37;;;;;;;3.13;2.43;;;14.20;52.00;;;;;;4897094;29;20217;-77
2022/04/04 08:18:07;;;;;;;3.50;2.40;;;13.50;51.40;;;;;;4898643;29;20236;-76
2022/04/04 08:20:35;;;;;;;3.80;2.40;;;13.00;52.20;;;;;;4892162;29;20241;-77
2022/04/04 08:23:04;;;;;;;2.70;2.50;;;13.40;52.70;;;;;;4896791;29;20277;-78
2022/04/04 08:25:32;;;;;;;4.13;2.50;;;13.10;54.50;;;;;;4897381;29;20305;-77
2022/04/04 08:28:03;;;;;;;2.97;2.65;;;12.90;54.00;;;;;;4890871;29;20309;-78
2022/04/04 08:30:31;;;;;;;5.17;2.83;;;14.20;51.10;;;;;;4896037;29;20288;-76
2022/04/04 08:32:59;;;;;;;4.50;2.67;;;14.50;50.50;;;;;;4895857;29;20309;-78
2022/04/04 08:35:29;;;;;;;3.67;2.60;;;14.90;50.80;;;;;;4897808;29;20224;-77
2022/04/04 08:37:57;;;;;;;2.63;2.30;;;15.20;50.00;;;;;;4898446;29;20226;-77
2022/04/04 08:40:25;;;;;;;3.65;2.40;;;15.10;50.00;;;;;;4895632;29;20213;-79
2022/04/04 08:42:55;;;;;;;3.83;2.50;;;14.30;49.50;;;;;;4894029;29;20242;-77
2022/04/04 08:45:23;;;;;;;4.15;3.22;;;14.90;49.40;;;;;;4879024;29;20245;-78
2022/04/04 08:47:52;;;;;;;5.18;3.35;;;14.40;53.50;;;;;;4886845;29;20448;-75
2022/04/04 08:50:21;;;;;;;3.78;3.10;;;13.70;49.80;;;;;;4904278;29;20472;-76
2022/04/04 08:52:51;;;;;;;2.58;2.05;;;14.00;52.80;;;;;;4904693;29;20291;-76
2022/04/04 08:55:19;;;;;;;5.20;3.28;;;14.70;51.20;;;;;;4904771;29;20218;-76
2022/04/04 08:57:47;;;;;;;7.82;2.28;;;14.90;54.00;;;;;;4898077;29;20209;-78
2022/04/04 09:00:17;;;;;;;2.95;2.38;;;16.60;57.90;;;;;;4888049;29;20741;-76
2022/04/04 09:03:02;;;;;;;4.18;2.60;;;16.90;49.30;;;;;;4895073;29;20217;-77
2022/04/04 09:05:33;;;;;;;3.92;2.22;;;15.60;49.20;;;;;;4896893;29;20221;-77
2022/04/04 09:08:05;;;;;;;3.55;2.25;;;15.50;51.10;;;;;;4878534;29;20661;-77
2022/04/04 09:10:36;;;;;;;3.08;2.45;;;15.50;47.50;;;;;;4889477;29;20213;-75
2022/04/04 09:13:10;;;;;;;2.45;2.25;;;15.10;50.50;;;;;;4898100;29;20265;-78
2022/04/04 09:15:57;;;;;;;3.22;2.30;;;15.00;49.20;;;;;;4898467;29;20624;-80
2022/04/04 09:18:46;;;;;;;4.53;2.40;;;15.00;51.60;;;;;;4893863;29;20216;-76
2022/04/04 09:21:31;;;;;;;2.85;2.38;;;14.90;51.20;;;;;;4898099;29;20291;-76
2022/04/04 09:24:07;;;;;;;3.75;2.28;;;14.70;50.50;;;;;;4886851;29;20737;-75
2022/04/04 09:26:37;;;;;;;3.75;2.50;;;15.60;50.10;;;;;;4878856;29;20237;-77
2022/04/04 09:29:09;;;;;;;3.33;2.53;;;15.30;52.50;;;;;;4890589;29;20655;-77
2022/04/04 09:31:54;;;;;;;3.72;2.47;;;14.60;50.70;;;;;;4898030;29;20213;-78
2022/04/04 09:34:24;;;;;;;2.80;2.38;;;15.20;48.40;;;;;;4897612;29;20201;-75
2022/04/04 09:36:53;;;;;;;3.50;2.53;;;14.90;50.60;;;;;;4897478;29;20615;-76
2022/04/04 09:39:22;;;;;;;4.78;2.42;;;15.10;48.40;;;;;;4896424;29;20683;-75
2022/04/04 09:41:51;;;;;;;3.20;2.60;;;14.60;48.40;;;;;;4896597;29;20675;-76
2022/04/04 09:44:26;;;;;;;2.97;2.67;;;15.10;49.50;;;;;;4897723;29;20218;-75
2022/04/04 09:46:54;;;;;;;2.90;2.60;;;15.40;49.50;;;;;;4897282;29;20671;-76
2022/04/04 09:49:22;;;;;;;4.23;2.90;;;15.70;47.10;;;;;;4896393;29;20366;-75
2022/04/04 09:51:52;;;;;;;3.10;2.77;;;16.40;48.10;;;;;;4897514;29;20273;-76
2022/04/04 09:54:23;;;;;;;4.03;2.80;;;15.70;46.70;;;;;;4906783;29;20214;-76
2022/04/04 09:56:57;;;;;;;2.87;2.60;;;15.90;47.20;;;;;;4914363;29;20239;-76
2022/04/04 09:59:32;;;;;;;4.67;2.80;;;15.60;50.60;;;;;;4911098;29;20213;-77
2022/04/04 10:02:00;;;;;;;3.33;2.80;;;15.40;49.00;;;;;;4907010;29;20241;-77
2022/04/04 10:04:31;;;;;;;5.37;3.10;;;15.80;50.50;;;;;;4896556;29;20239;-75
2022/04/04 10:07:03;;;;;;;5.40;3.00;;;15.90;48.80;;;;;;4897254;29;20313;-76
2022/04/04 10:09:33;;;;;;;4.70;3.10;;;16.20;48.80;;;;;;4887410;29;20230;-78
2022/04/04 10:12:02;;;;;;;5.37;3.20;;;15.70;47.10;;;;;;4899128;29;20293;-76
2022/04/04 10:14:32;;;;;;;3.53;3.23;;;15.50;53.30;;;;;;4897096;29;20295;-75
2022/04/04 10:17:01;;;;;;;3.70;3.30;;;15.80;52.20;;;;;;4897148;29;20241;-77
2022/04/04 10:19:30;;;;;;;4.43;3.43;;;15.20;49.60;;;;;;4881932;29;20244;-80
2022/04/04 10:21:58;;;;;;;3.60;3.27;;;14.90;49.80;;;;;;4877994;29;20248;-74
2022/04/04 10:24:29;;;;;;;4.80;3.20;;;14.70;51.00;;;;;;4883348;29;20242;-79
2022/04/04 10:26:59;;;;;;;4.13;3.67;;;14.90;53.60;;;;;;4897040;29;20632;-79
2022/04/04 10:29:39;;;;;;;3.57;3.27;;;14.20;53.40;;;;;;4896894;29;20280;-76
2022/04/04 10:32:22;;;;;;;3.93;3.40;;;13.80;52.50;;;;;;4895534;29;20473;-82
2022/04/04 10:34:51;;;;;;;4.00;3.60;;;14.40;54.20;;;;;;4889518;29;20559;-81
2022/04/04 10:37:20;;;;;;;4.13;3.77;;;13.10;53.20;;;;;;4878052;29;20206;-78
2022/04/04 10:39:49;;;;;;;5.33;3.83;;;12.70;54.40;;;;;;4880996;29;20313;-80
2022/04/04 10:42:28;;;;;;;4.30;3.80;;;12.80;56.50;;;;;;4881840;29;20751;-77
2022/04/04 10:45:05;;;;;;;5.03;4.17;;;12.20;57.00;;;;;;4890763;29;20216;-78
2022/04/04 10:47:36;;;;;;;4.53;3.97;;;11.00;56.20;;;;;;4900545;29;20361;-77
2022/04/04 10:50:22;;;;;;;4.90;3.97;;;10.80;59.10;;;;;;4901049;29;20621;-75
2022/04/04 10:52:51;;;;;;;6.30;3.97;;;11.70;62.90;;;;;;4900928;29;20208;-74
2022/04/04 10:55:30;;;;;;;4.40;3.97;;;12.60;59.30;;;;;;4902791;29;20210;-75
2022/04/04 10:58:10;;;;;;;4.70;4.20;;;12.10;57.60;;;;;;4911418;29;20186;-75
2022/04/04 11:00:58;;;;;;;5.87;4.30;;;11.90;59.20;;;;;;4919242;29;20197;-74
2022/04/04 11:03:31;;;;;;;4.90;4.30;;;11.20;59.40;;;;;;4911070;29;20202;-74
2022/04/04 11:09:19;;;;;;;4.77;3.77;;;11.50;59.90;;;;;;4901855;29;20261;-76
2022/04/04 11:11:52;;;;;;;5.63;4.23;;;11.70;59.90;;;;;;4900102;29;20206;-75
2022/04/04 11:14:54;;;;;;;5.57;4.50;;;12.70;57.80;;;;;;4900827;29;20205;-77
2022/04/04 11:17:41;;;;;;;6.53;4.70;;;12.00;58.40;;;;;;4894094;29;20220;-76
2022/04/04 11:20:32;;;;;;;5.53;4.80;;;12.50;62.30;;;;;;4883204;29;20909;-76
2022/04/04 11:23:04;;;;;;;5.27;4.40;;;12.50;61.60;;;;;;4881630;29;20198;-74
2022/04/04 11:25:35;;;;;;;4.93;4.40;;;12.40;58.50;;;;;;4883068;29;20210;-75
2022/04/04 11:28:06;;;;;;;8.53;4.83;;;12.00;58.00;;;;;;4881907;29;20267;-78
2022/04/04 11:30:39;;;;;;;5.23;4.60;;;11.30;59.00;;;;;;4906357;29;20263;-77
2022/04/04 11:33:11;;;;;;;6.40;5.10;;;11.60;70.60;;;;;;4906774;29;20206;-78
2022/04/04 11:35:42;;;;;;;6.50;4.83;;;11.20;59.60;;;;;;4893706;29;20299;-74
2022/04/04 11:38:12;;;;;;;6.50;5.77;;;10.30;62.70;;;;;;4892697;29;20202;-74
2022/04/04 11:40:49;;;;;;;5.80;5.20;;;10.50;66.00;;;;;;4893230;29;20216;-73
2022/04/04 11:43:17;;;;;;;5.97;5.30;;;10.60;64.10;;;;;;4896485;29;20214;-75
2022/04/04 11:45:49;;;;;;;6.30;5.70;;;10.80;66.50;;;;;;4885660;29;20213;-81
2022/04/04 11:48:23;;;;;;;7.37;5.60;;;10.70;67.20;;;;;;4882886;29;20614;-76
2022/04/04 11:50:57;;;;;;;6.30;5.53;;;10.90;66.40;;;;;;4899080;29;20277;-77
2022/04/04 11:53:30;;;;;;;7.03;6.23;;;10.70;66.50;;;;;;4896711;29;20206;-77
2022/04/04 11:56:02;;;;;;;6.70;5.57;;;10.30;66.60;;;;;;4882459;29;20194;-76
2022/04/04 11:58:37;;;;;;;7.00;6.30;;;10.40;68.30;;;;;;4883029;29;20194;-77
2022/04/04 12:01:07;;;;;;;7.13;6.30;;;10.00;69.70;;;;;;4880560;29;20250;-75
2022/04/04 12:03:43;;;;;;;7.10;6.17;;;10.10;71.80;;;;;;4882189;29;20307;-77
2022/04/04 12:06:11;;;;;;;7.27;6.47;;;10.00;67.80;;;;;;4880467;29;20633;-79
2022/04/04 12:08:45;;;;;;;7.57;6.13;;;10.10;72.30;;;;;;4880741;29;20704;-79
2022/04/04 12:11:14;;;;;;;7.33;6.23;;;9.90;75.40;;;;;;4880705;29;20294;-79
2022/04/04 12:13:53;;;;;;;9.23;6.57;;;9.80;69.20;;;;;;4881322;29;20256;-80
2022/04/04 12:16:24;;;;;;;7.40;6.17;;;9.80;71.80;;;;;;4880461;29;20198;-78
2022/04/04 12:18:59;;;;;;;7.40;6.70;;;9.50;70.50;;;;;;4889213;29;20295;-80
2022/04/04 12:21:32;;;;;;;7.50;6.43;;;9.20;73.60;;;;;;4898951;29;20296;-79
2022/04/04 12:26:47;;;;;;;8.30;6.80;;;9.20;72.70;;;;;;4898731;29;20201;-78
2022/04/04 12:29:15;;;;;;;7.10;6.20;;;9.30;74.40;;;;;;4885566;29;20234;-79
2022/04/04 12:31:56;;;;;;;6.77;6.07;;;9.40;77.60;;;;;;4879960;29;20210;-77
2022/04/04 12:34:27;;;;;;;7.23;6.47;;;9.20;72.20;;;;;;4887042;29;20202;-78
2022/04/04 12:37:02;;;;;;;7.03;6.20;;;9.40;77.10;;;;;;4898417;29;20202;-79
2022/04/04 12:39:30;;;;;;;6.97;6.27;;;9.60;70.90;;;;;;4897641;29;20245;-80
2022/04/04 12:42:00;;;;;;;7.73;6.80;;;9.60;76.60;;;;;;4893848;29;20218;-78
2022/04/04 12:44:30;;;;;;;8.10;7.20;;;9.50;75.30;;;;;;4880229;29;20195;-78
2022/04/04 12:47:10;;;;;;;6.93;6.23;;;9.60;77.10;;;;;;4898448;29;20671;-77
2022/04/04 12:49:40;;;;;;;7.07;6.23;;;10.00;76.40;;;;;;4883331;29;20218;-77
2022/04/04 12:52:30;;;;;;;7.27;6.57;;;9.50;73.60;;;;;;4880303;29;20258;-73
2022/04/04 12:55:12;;;;;;;7.68;6.78;;;9.30;75.00;;;;;;4879579;29;20458;-77
2022/04/04 12:57:41;;;;;;;6.33;5.73;;;9.00;74.70;;;;;;4894835;29;20224;-78
2022/04/04 13:00:10;;;;;;;7.30;6.43;;;9.20;81.30;;;;;;4893509;29;20219;-80
2022/04/04 13:02:41;;;;;;;8.27;7.30;;;9.30;77.70;;;;;;4893699;29;20221;-78
2022/04/04 13:05:13;;;;;;;9.33;7.43;;;9.10;78.70;;;;;;4898755;29;20226;-73
2022/04/04 13:07:47;;;;;;;8.13;7.33;;;8.90;77.70;;;;;;4908794;29;20305;-75
2022/04/04 13:10:15;;;;;;;7.93;7.13;;;9.00;77.30;;;;;;4887679;29;20363;-79
2022/04/04 13:12:45;;;;;;;8.00;7.20;;;9.20;82.50;;;;;;4898131;29;20259;-79
2022/04/04 13:15:13;;;;;;;8.70;7.10;;;8.90;78.40;;;;;;4897933;29;20276;-78
2022/04/04 13:17:44;;;;;;;15.47;8.30;;;9.00;83.00;;;;;;4897138;29;20218;-76
2022/04/04 13:20:15;;;;;;;9.20;7.93;;;9.30;78.90;;;;;;4890396;29;20218;-78
2022/04/04 13:22:44;;;;;;;9.47;7.87;;;9.30;78.20;;;;;;4896904;29;20209;-79
2022/04/04 13:25:15;;;;;;;7.70;6.90;;;9.50;82.60;;;;;;4896872;29;20241;-80
2022/04/04 13:27:44;;;;;;;7.77;6.97;;;9.50;79.10;;;;;;4896833;29;20689;-78
2022/04/04 13:30:13;;;;;;;9.70;7.53;;;9.40;81.10;;;;;;4896055;29;20229;-80
2022/04/04 13:32:45;;;;;;;9.27;7.53;;;9.60;79.80;;;;;;4903767;29;20305;-76
2022/04/04 13:35:14;;;;;;;8.27;7.40;;;9.30;81.10;;;;;;4916429;29;20212;-75
2022/04/04 13:37:42;;;;;;;8.70;7.47;;;9.40;83.40;;;;;;4900343;29;20217;-80
2022/04/04 13:40:12;;;;;;;7.87;7.07;;;9.50;83.70;;;;;;4892762;29;20286;-77
2022/04/04 13:42:40;;;;;;;10.43;7.93;;;9.30;80.30;;;;;;4885215;29;20234;-80
2022/04/04 13:45:08;;;;;;;8.30;7.40;;;9.20;79.00;;;;;;4879970;29;20262;-80
2022/04/04 13:47:40;;;;;;;8.83;7.97;;;8.90;79.00;;;;;;4891872;29;20222;-81
2022/04/04 13:50:11;;;;;;;9.50;7.83;;;8.80;82.90;;;;;;4894568;29;20222;-79
2022/04/04 13:52:40;;;;;;;9.33;8.43;;;8.90;84.40;;;;;;4892684;29;20549;-81
2022/04/04 13:55:12;;;;;;;9.48;8.48;;;9.00;87.70;;;;;;4893189;29;20456;-79
2022/04/04 13:57:41;;;;;;;9.13;7.83;;;8.80;84.00;;;;;;4895486;29;20629;-78
2022/04/04 14:00:11;;;;;;;8.77;7.87;;;8.80;87.10;;;;;;4896052;29;20201;-78
2022/04/04 14:02:43;;;;;;;9.83;7.80;;;8.80;85.70;;;;;;4883457;29;20360;-80
2022/04/04 14:05:15;;;;;;;11.60;8.83;;;8.90;84.90;;;;;;4878447;29;20679;-80
2022/04/04 14:08:04;;;;;;;10.30;8.90;;;8.90;88.30;;;;;;4877474;29;20329;-78
2022/04/04 14:10:32;;;;;;;10.10;9.10;;;9.20;90.10;;;;;;4878148;29;20317;-80
2022/04/04 14:13:00;;;;;;;10.77;9.10;;;9.20;90.10;;;;;;4881089;29;20205;-80
2022/04/04 14:15:28;;;;;;;10.47;8.77;;;9.30;90.80;;;;;;4884051;29;20229;-79
2022/04/04 14:17:57;;;;;;;9.27;8.40;;;9.10;88.00;;;;;;4884138;29;20282;-78
2022/04/04 14:20:27;;;;;;;9.57;8.20;;;9.30;88.80;;;;;;4884058;29;20248;-79
2022/04/04 14:22:56;;;;;;;10.40;9.40;;;9.10;88.20;;;;;;4884830;29;20752;-79
2022/04/04 14:25:25;;;;;;;11.00;9.20;;;8.70;87.30;;;;;;4884471;29;20269;-77
2022/04/04 14:27:53;;;;;;;9.00;8.10;;;8.70;89.20;;;;;;4882310;29;20237;-78
2022/04/04 14:30:22;;;;;;;9.60;8.40;;;8.40;89.40;;;;;;4881948;29;20313;-78
2022/04/04 14:32:50;;;;;;;10.63;8.13;;;9.20;91.40;;;;;;4884823;29;20210;-79
2022/04/04 14:35:19;;;;;;;10.70;8.40;;;9.00;88.20;;;;;;4884110;29;20297;-79
2022/04/04 14:37:49;;;;;;;10.60;8.00;;;9.00;87.60;;;;;;4884318;29;20262;-74
2022/04/04 14:40:18;;;;;;;9.60;8.60;;;8.90;88.90;;;;;;4880910;29;20281;-78
2022/04/04 14:42:49;;;;;;;9.10;8.20;;;8.50;90.00;;;;;;4882362;29;20365;-79
2022/04/04 14:45:17;;;;;;;10.70;8.17;;;8.60;91.40;;;;;;4884994;29;20308;-78
2022/04/04 14:47:48;;;;;;;9.27;7.83;;;8.60;90.10;;;;;;4886009;29;20747;-76
2022/04/04 14:50:16;;;;;;;11.90;7.70;;;8.60;89.80;;;;;;4885907;29;20308;-82
2022/04/04 14:52:45;;;;;;;8.50;7.60;;;8.70;88.50;;;;;;4884463;29;20310;-79
2022/04/04 14:55:15;;;;;;;8.20;7.30;;;8.50;88.10;;;;;;4882588;29;20692;-79
2022/04/04 14:57:43;;;;;;;9.80;8.80;;;8.60;87.50;;;;;;4884218;29;20305;-80
2022/04/04 15:00:13;;;;;;;11.10;9.87;;;8.60;87.10;;;;;;4866196;29;20247;-78
2022/04/04 15:02:41;;;;;;;10.17;9.07;;;8.40;87.00;;;;;;4874146;29;20596;-79
2022/04/04 15:05:30;;;;;;;10.57;8.57;;;8.50;89.80;;;;;;4866174;29;20257;-80
2022/04/04 15:07:59;;;;;;;9.70;8.33;;;8.30;88.40;;;;;;4880901;29;20298;-78
2022/04/04 15:10:29;;;;;;;9.20;8.30;;;8.40;90.30;;;;;;4883155;29;20269;-80
2022/04/04 15:12:57;;;;;;;9.17;7.60;;;8.40;91.10;;;;;;4884215;29;20260;-80
2022/04/04 15:15:25;;;;;;;8.60;7.80;;;8.70;93.00;;;;;;4884625;29;20282;-80
2022/04/04 15:17:53;;;;;;;9.90;8.43;;;9.20;90.30;;;;;;4883705;29;20249;-79
2022/04/04 15:20:22;;;;;;;9.80;8.33;;;9.20;87.90;;;;;;4865818;29;20641;-80
2022/04/04 15:22:50;;;;;;;10.97;8.07;;;8.90;90.90;;;;;;4865815;29;20227;-78
2022/04/04 15:25:18;;;;;;;11.10;8.30;;;8.90;90.70;;;;;;4880186;29;20238;-79
2022/04/04 15:27:47;;;;;;;9.00;7.77;;;8.80;91.40;;;;;;4880550;29;20837;-82
2022/04/04 15:30:17;;;;;;;8.70;7.80;;;8.70;89.00;;;;;;4880098;29;20230;-75
2022/04/04 15:32:47;;;;;;;8.85;7.60;;;8.50;87.00;;;;;;4880577;29;20616;-79
2022/04/04 15:35:15;;;;;;;9.17;8.13;;;8.30;87.00;;;;;;4881235;29;20254;-81
2022/04/04 15:37:45;;;;;;;9.87;8.80;;;8.20;89.40;;;;;;4881102;29;20210;-80
2022/04/04 15:40:13;;;;;;;10.20;9.20;;;7.90;90.40;;;;;;4873756;29;20304;-77
2022/04/04 15:42:42;;;;;;;9.57;8.67;;;7.80;91.20;;;;;;4879574;29;20222;-77
2022/04/04 15:45:13;;;;;;;9.93;8.87;;;7.90;91.50;;;;;;4881112;29;20302;-78
2022/04/04 15:47:41;;;;;;;11.57;8.80;;;7.90;90.40;;;;;;4880255;29;20222;-81
2022/04/04 15:50:13;;;;;;;10.50;9.40;;;7.70;91.70;;;;;;4879434;29;20469;-78
2022/04/04 15:52:41;;;;;;;10.60;9.23;;;7.80;91.80;;;;;;4880886;29;21100;-80
2022/04/04 15:55:10;;;;;;;10.43;9.10;;;7.70;91.50;;;;;;4880476;29;20458;-81
2022/04/04 15:57:39;;;;;;;9.80;8.80;;;7.50;92.00;;;;;;4880378;29;20673;-81
2022/04/04 16:00:11;;;;;;;9.40;8.43;;;7.50;92.50;;;;;;4876883;29;20210;-81
2022/04/04 16:02:41;;;;;;;10.00;8.70;;;7.40;91.40;;;;;;4880821;29;20225;-79
2022/04/04 16:05:11;;;;;;;12.53;8.90;;;7.40;91.00;;;;;;4880697;29;20290;-81
2022/04/04 16:07:42;;;;;;;9.73;8.57;;;7.30;91.90;;;;;;4877270;29;20210;-79
2022/04/04 16:10:12;;;;;;;9.60;8.60;;;7.30;91.30;;;;;;4875910;29;20325;-74
2022/04/04 16:12:40;;;;;;;9.87;8.87;;;7.30;90.80;;;;;;4893355;29;20561;-76
2022/04/04 16:15:10;;;;;;;11.37;9.37;;;7.10;91.50;;;;;;4880247;29;20575;-79
2022/04/04 16:17:45;;;;;;;11.33;9.33;;;7.00;92.10;;;;;;4878895;29;20300;-78
2022/04/04 16:20:14;;;;;;;9.63;8.63;;;7.10;91.80;;;;;;4879550;29;20655;-78
2022/04/04 16:22:43;;;;;;;10.60;9.20;;;7.00;92.10;;;;;;4874006;29;20271;-79
2022/04/04 16:25:11;;;;;;;10.67;9.50;;;6.90;92.40;;;;;;4879341;29;20229;-77
2022/04/04 16:27:40;;;;;;;12.63;8.73;;;6.80;93.00;;;;;;4870416;29;20222;-78
2022/04/04 16:30:09;;;;;;;11.10;9.17;;;6.70;93.60;;;;;;4876980;29;20230;-81
2022/04/04 16:32:38;;;;;;;11.70;9.50;;;6.60;93.20;;;;;;4879028;29;20697;-78
2022/04/04 16:35:09;;;;;;;10.57;9.10;;;6.60;93.20;;;;;;4876784;29;20638;-79
2022/04/04 16:37:40;;;;;;;11.53;9.73;;;6.50;93.70;;;;;;4878239;29;20270;-78
2022/04/04 16:40:10;;;;;;;11.20;9.37;;;6.60;94.10;;;;;;4878850;29;20210;-77
2022/04/04 16:42:39;;;;;;;11.20;9.20;;;6.50;93.60;;;;;;4879451;29;20589;-78
2022/04/04 16:45:08;;;;;;;9.80;8.80;;;6.60;93.20;;;;;;4879268;29;20806;-78
2022/04/04 16:47:36;;;;;;;11.80;9.47;;;6.50;92.50;;;;;;4877418;29;20266;-77
2022/04/04 16:50:05;;;;;;;9.83;8.83;;;6.50;93.50;;;;;;4878287;29;20317;-80
2022/04/04 16:52:36;;;;;;;10.67;8.50;;;6.60;93.50;;;;;;4879272;29;20250;-80
2022/04/04 16:55:07;;;;;;;9.80;8.80;;;6.50;93.20;;;;;;4879024;29;20224;-78
2022/04/04 16:57:35;;;;;;;10.27;9.07;;;6.50;94.30;;;;;;4876633;29;20729;-77
2022/04/04 17:00:04;;;;;;;10.53;9.43;;;6.40;93.80;;;;;;4864509;29;20253;-80
2022/04/04 17:02:32;;;;;;;10.37;9.27;;;6.40;94.20;;;;;;4875144;29;20436;-81
2022/04/04 17:05:03;;;;;;;11.20;9.90;;;6.40;94.60;;;;;;4879239;29;20326;-79
2022/04/04 17:07:31;;;;;;;9.70;8.70;;;6.20;94.10;;;;;;4878892;29;20250;-79
2022/04/04 17:10:02;;;;;;;7.80;7.00;;;6.20;94.10;;;;;;4879110;29;20218;-78
2022/04/04 17:12:30;;;;;;;9.73;8.73;;;6.40;97.00;;;;;;4878208;29;20482;-80
2022/04/04 17:14:58;;;;;;;9.90;8.83;;;6.40;94.00;;;;;;4875176;29;20254;-78
2022/04/04 17:17:26;;;;;;;10.83;8.60;;;6.20;94.10;;;;;;4879378;29;20302;-80